createdAt,value
2022-12-27T00:02:14.107Z,50.45
2022-12-27T00:04:45.145Z,79.80
2022-12-27T00:07:15.542Z,110.28
2022-12-27T00:09:45.799Z,144.23
2022-12-27T00:12:16.091Z,147.40
2022-12-27T00:14:46.209Z,116.55
2022-12-27T00:17:16.150Z,321.80
2022-12-27T00:19:46.154Z,364.73
2022-12-27T00:22:16.192Z,365.05
2022-12-27T00:24:46.722Z,200.50
2022-12-27T00:27:16.945Z,289.77
2022-12-27T00:29:47.048Z,335.00
2022-12-27T00:32:17.011Z,363.95
2022-12-27T00:34:47.226Z,346.63
2022-12-27T00:37:17.743Z,22.77
2022-12-27T00:39:47.892Z,50.15
2022-12-27T00:42:18.149Z,76.30
2022-12-27T00:44:48.292Z,53.88
2022-12-27T00:47:18.281Z,65.30
2022-12-27T00:49:48.228Z,84.78
2022-12-27T00:52:18.264Z,77.95
2022-12-27T00:54:48.341Z,87.85
2022-12-27T00:57:18.303Z,105.90
2022-12-27T00:59:48.709Z,112.38
2022-12-27T01:02:18.941Z,123.20
2022-12-27T01:04:49.127Z,114.80
2022-12-27T01:07:19.335Z,137.65
2022-12-27T01:09:49.814Z,135.82
2022-12-27T01:12:20.290Z,152.35
2022-12-27T01:14:50.511Z,205.23
2022-12-27T01:17:20.697Z,454.33
2022-12-27T01:19:50.929Z,539.50
2022-12-27T01:22:21.123Z,218.15
2022-12-27T01:24:51.340Z,200.48
2022-12-27T01:27:22.583Z,193.25
2022-12-27T01:32:22.451Z,195.68
2022-12-27T01:34:53.917Z,136.45
2022-12-27T01:39:53.691Z,24.73
2022-12-27T01:42:42.449Z,30.95
2022-12-27T01:45:30.094Z,25.80
2022-12-27T01:48:03.351Z,29.00
2022-12-27T01:50:47.611Z,29.17
2022-12-27T01:53:28.166Z,31.45
2022-12-27T01:56:12.282Z,28.42
2022-12-27T01:58:48.933Z,27.20
2022-12-27T02:01:24.887Z,21.90
2022-12-27T02:04:04.925Z,26.27
2022-12-27T02:06:36.679Z,23.90
2022-12-27T02:09:25.417Z,27.48
2022-12-27T02:12:01.153Z,22.45
2022-12-27T02:14:46.512Z,24.55
2022-12-27T02:17:21.274Z,24.45
2022-12-27T02:20:00.156Z,27.75
2022-12-27T02:23:07.614Z,23.80
2022-12-27T02:26:03.433Z,29.08
2022-12-27T02:29:05.149Z,22.65
2022-12-27T02:31:57.201Z,26.63
2022-12-27T02:35:05.508Z,24.17
2022-12-27T02:37:42.233Z,22.10
2022-12-27T02:40:32.650Z,20.90
2022-12-27T02:43:21.842Z,23.98
2022-12-27T02:46:24.009Z,27.30
2022-12-27T02:49:14.088Z,23.42
2022-12-27T02:52:17.722Z,22.80
2022-12-27T02:55:25.244Z,22.45
2022-12-27T02:58:34.049Z,23.70
2022-12-27T03:01:22.681Z,29.83
2022-12-27T03:04:30.393Z,29.80
2022-12-27T03:07:31.173Z,31.38
2022-12-27T03:10:29.383Z,25.65
2022-12-27T03:13:38.697Z,26.20
2022-12-27T03:16:19.981Z,29.95
2022-12-27T03:19:12.675Z,25.92
2022-12-27T03:22:06.979Z,26.55
2022-12-27T03:25:00.367Z,28.77
2022-12-27T03:27:35.508Z,34.08
2022-12-27T03:30:28.667Z,32.40
2022-12-27T03:33:16.342Z,33.92
2022-12-27T03:36:33.294Z,17.55
2022-12-27T03:39:18.007Z,18.30
2022-12-27T03:42:12.439Z,18.77
2022-12-27T03:44:44.373Z,26.15
2022-12-27T03:47:31.502Z,28.95
2022-12-27T03:50:24.267Z,24.80
2022-12-27T03:53:16.879Z,21.55
2022-12-27T03:55:47.420Z,22.27
2022-12-27T03:58:17.943Z,28.45
2022-12-27T04:00:48.398Z,34.67
2022-12-27T04:03:18.649Z,30.00
2022-12-27T04:05:48.953Z,42.63
2022-12-27T04:08:37.413Z,47.08
2022-12-27T04:11:26.176Z,56.95
2022-12-27T04:14:15.010Z,158.55
2022-12-27T04:17:03.388Z,130.32
2022-12-27T04:19:52.006Z,177.80
2022-12-27T04:22:40.359Z,267.35
2022-12-27T04:25:30.374Z,374.63
2022-12-27T04:28:19.084Z,478.13
2022-12-27T04:31:07.610Z,522.08
2022-12-27T04:33:56.014Z,497.65
2022-12-27T04:36:26.246Z,31.05
2022-12-27T04:38:56.481Z,39.03
2022-12-27T04:41:44.798Z,59.92
2022-12-27T04:44:33.521Z,65.65
2022-12-27T04:47:22.723Z,72.13
2022-12-27T04:50:11.730Z,69.10
2022-12-27T04:53:00.113Z,65.75
2022-12-27T04:55:32.289Z,86.07
2022-12-27T04:58:02.870Z,109.28
2022-12-27T05:00:53.457Z,134.90
2022-12-27T05:03:26.245Z,27.90
2022-12-27T05:05:56.586Z,45.72
2022-12-27T05:08:45.280Z,50.95
2022-12-27T05:11:34.485Z,52.47
2022-12-27T05:14:15.310Z,67.00
2022-12-27T05:16:46.991Z,64.53
2022-12-27T05:19:17.653Z,69.10
2022-12-27T05:22:07.649Z,68.50
2022-12-27T05:24:56.395Z,74.22
2022-12-27T05:27:26.590Z,69.63
2022-12-27T05:29:56.756Z,94.97
2022-12-27T05:32:26.717Z,88.38
2022-12-27T05:34:56.984Z,79.45
2022-12-27T05:37:27.220Z,10.63
2022-12-27T05:39:57.402Z,12.00
2022-12-27T05:42:27.637Z,12.35
2022-12-27T05:44:57.852Z,12.43
2022-12-27T05:47:28.068Z,11.35
2022-12-27T05:50:00.004Z,13.93
2022-12-27T05:52:30.147Z,12.88
2022-12-27T05:55:00.140Z,12.55
2022-12-27T05:57:30.286Z,11.48
2022-12-27T06:00:00.343Z,11.95
2022-12-27T06:02:30.510Z,11.68
2022-12-27T06:05:01.388Z,10.32
2022-12-27T06:07:32.851Z,11.63
2022-12-27T06:10:03.079Z,11.15
2022-12-27T06:12:34.324Z,11.95
2022-12-27T06:15:04.663Z,11.50
2022-12-27T06:17:35.010Z,10.45
2022-12-27T06:20:05.929Z,12.10
2022-12-27T06:22:36.160Z,11.13
2022-12-27T06:25:10.830Z,10.30
2022-12-27T06:27:44.687Z,12.32
2022-12-27T06:30:15.563Z,10.90
2022-12-27T06:32:45.777Z,11.18
2022-12-27T06:35:15.937Z,10.88
2022-12-27T06:37:46.001Z,10.75
2022-12-27T06:40:16.192Z,10.38
2022-12-27T06:42:46.351Z,11.55
2022-12-27T06:45:16.379Z,10.65
2022-12-27T06:47:46.421Z,12.00
2022-12-27T06:50:16.417Z,9.90
2022-12-27T06:52:46.610Z,10.52
2022-12-27T06:55:16.818Z,11.07
2022-12-27T06:57:46.855Z,11.20
2022-12-27T07:00:18.400Z,11.00
2022-12-27T07:02:48.866Z,11.32
2022-12-27T07:05:19.118Z,11.30
2022-12-27T07:07:49.452Z,9.45
2022-12-27T07:10:19.894Z,10.32
2022-12-27T07:12:50.095Z,10.48
2022-12-27T07:15:20.307Z,10.52
2022-12-27T07:17:50.501Z,10.55
2022-12-27T07:20:20.755Z,10.48
2022-12-27T07:22:52.341Z,10.13
2022-12-27T07:25:22.508Z,12.23
2022-12-27T07:27:52.592Z,11.27
2022-12-27T07:30:22.764Z,10.43
2022-12-27T07:32:52.996Z,11.20
2022-12-27T07:35:23.246Z,11.55
2022-12-27T07:37:53.422Z,10.07
2022-12-27T07:40:24.129Z,11.13
2022-12-27T07:42:54.271Z,11.93
2022-12-27T07:45:24.481Z,13.18
2022-12-27T07:47:55.540Z,12.65
2022-12-27T07:50:25.750Z,10.18
2022-12-27T07:52:55.797Z,11.60
2022-12-27T07:57:56.972Z,14.43
2022-12-27T08:00:27.328Z,145.88
2022-12-27T08:02:57.952Z,12.30
2022-12-27T08:05:28.231Z,11.10
2022-12-27T08:07:59.562Z,11.32
2022-12-27T08:10:30.734Z,12.75
2022-12-27T08:13:10.029Z,12.38
2022-12-27T08:15:42.476Z,10.70
2022-12-27T08:18:13.068Z,13.27
2022-12-27T08:20:43.297Z,11.00
2022-12-27T08:23:13.450Z,11.73
2022-12-27T08:25:48.497Z,12.63
2022-12-27T08:28:20.826Z,15.48
2022-12-27T08:30:51.156Z,13.95
2022-12-27T08:33:22.225Z,12.25
2022-12-27T08:35:53.915Z,13.03
2022-12-27T08:38:25.745Z,17.73
2022-12-27T08:40:56.035Z,15.07
2022-12-27T08:43:26.267Z,16.77
2022-12-27T08:45:56.452Z,20.05
2022-12-27T08:48:26.593Z,15.57
2022-12-27T08:50:56.758Z,16.63
2022-12-27T08:53:27.034Z,17.00
2022-12-27T08:55:59.380Z,19.38
2022-12-27T08:58:29.761Z,24.33
2022-12-27T09:01:06.655Z,20.77
2022-12-27T09:03:37.181Z,23.08
2022-12-27T09:06:12.626Z,15.67
2022-12-27T09:08:42.821Z,21.92
2022-12-27T09:11:22.032Z,18.85
2022-12-27T09:13:52.644Z,18.33
2022-12-27T09:16:26.473Z,20.57
2022-12-27T09:18:58.320Z,23.00
2022-12-27T09:21:32.317Z,34.42
2022-12-27T09:24:02.492Z,23.33
2022-12-27T09:26:33.707Z,24.50
2022-12-27T09:29:04.145Z,22.08
2022-12-27T09:31:35.371Z,19.15
2022-12-27T09:34:05.625Z,38.90
2022-12-27T09:36:35.915Z,57.55
2022-12-27T09:39:06.365Z,72.20
2022-12-27T09:42:46.539Z,67.53
2022-12-27T09:45:06.463Z,60.25
2022-12-27T09:47:51.136Z,95.50
2022-12-27T09:50:40.550Z,78.32
2022-12-27T09:53:25.451Z,68.00
2022-12-27T09:55:58.225Z,63.55
2022-12-27T09:58:38.119Z,433.83
2022-12-27T10:01:38.801Z,63.05
2022-12-27T10:04:16.548Z,69.60
2022-12-27T10:07:05.867Z,62.30
2022-12-27T10:09:59.650Z,70.45
2022-12-27T10:12:54.444Z,88.90
2022-12-27T10:15:54.410Z,160.52
2022-12-27T10:18:45.681Z,650.70
2022-12-27T10:21:30.397Z,220.95
2022-12-27T10:24:10.896Z,254.60
2022-12-27T10:26:41.696Z,205.68
2022-12-27T10:29:31.252Z,266.80
2022-12-27T10:32:01.577Z,390.52
2022-12-27T10:34:31.959Z,433.83
2022-12-27T10:37:02.212Z,143.10
2022-12-27T10:39:34.452Z,109.97
2022-12-27T10:42:40.769Z,115.75
2022-12-27T10:45:34.592Z,261.25
2022-12-27T10:48:13.888Z,289.25
2022-12-27T10:51:08.629Z,143.48
2022-12-27T10:53:39.669Z,336.55
2022-12-27T10:56:23.430Z,277.40
2022-12-27T10:58:59.092Z,187.98
2022-12-27T11:01:32.436Z,279.27
2022-12-27T11:04:21.830Z,330.17
2022-12-27T11:07:16.344Z,382.75
2022-12-27T11:09:51.003Z,454.27
2022-12-27T11:12:27.135Z,481.63
2022-12-27T11:15:21.899Z,514.50
2022-12-27T11:17:55.988Z,500.00
2022-12-27T11:20:34.487Z,325.33
2022-12-27T11:23:13.293Z,289.27
2022-12-27T11:25:55.987Z,288.30
2022-12-27T11:28:39.854Z,281.67
2022-12-27T11:31:13.976Z,259.35
2022-12-27T11:33:56.058Z,621.03
2022-12-27T11:36:44.215Z,160.25
2022-12-27T11:39:39.119Z,132.93
2022-12-27T11:42:20.600Z,219.93
2022-12-27T11:44:59.716Z,173.80
2022-12-27T11:47:35.637Z,167.10
2022-12-27T11:50:27.673Z,174.57
2022-12-27T11:53:11.189Z,235.65
2022-12-27T11:55:59.592Z,255.70
2022-12-27T11:59:02.989Z,289.58
2022-12-27T12:01:50.365Z,444.13
2022-12-27T12:05:17.291Z,404.88
2022-12-27T12:08:22.619Z,442.13
2022-12-27T12:11:09.882Z,473.23
2022-12-27T12:14:02.232Z,494.63
2022-12-27T12:17:08.801Z,502.88
2022-12-27T12:19:56.867Z,511.75
2022-12-27T12:22:42.240Z,557.60
2022-12-27T12:25:12.812Z,549.88
2022-12-27T12:27:55.094Z,554.90
2022-12-27T12:31:00.073Z,534.42
2022-12-27T12:33:57.435Z,541.55
2022-12-27T12:36:52.263Z,535.28
2022-12-27T12:39:34.460Z,556.83
2022-12-27T12:42:24.835Z,562.60
2022-12-27T12:45:19.423Z,556.35
2022-12-27T12:48:08.174Z,548.95
2022-12-27T12:50:41.329Z,556.70
2022-12-27T12:53:40.693Z,556.08
2022-12-27T12:56:44.121Z,546.97
2022-12-27T12:59:45.574Z,528.45
2022-12-27T13:02:21.318Z,524.40
2022-12-27T13:05:01.364Z,540.50
2022-12-27T13:07:52.665Z,544.58
2022-12-27T13:10:40.084Z,538.75
2022-12-27T13:13:22.141Z,559.35
2022-12-27T13:16:04.240Z,561.70
2022-12-27T13:18:41.188Z,560.92
2022-12-27T13:21:22.887Z,544.03
2022-12-27T13:24:04.720Z,566.40
2022-12-27T13:27:01.190Z,560.47
2022-12-27T13:29:41.345Z,570.28
2022-12-27T13:32:33.609Z,578.80
2022-12-27T13:35:31.456Z,553.03
2022-12-27T13:38:32.894Z,563.08
2022-12-27T13:41:30.434Z,563.42
2022-12-27T13:44:24.931Z,572.72
2022-12-27T13:47:23.088Z,571.20
2022-12-27T13:50:25.981Z,573.45
2022-12-27T13:53:00.341Z,570.42
2022-12-27T13:55:49.097Z,565.55
2022-12-27T13:58:54.789Z,571.45
2022-12-27T14:01:31.122Z,579.38
2022-12-27T14:08:57.476Z,645.83
2022-12-27T14:11:42.464Z,22.98
2022-12-27T14:14:18.985Z,48.60
2022-12-27T14:17:22.485Z,268.77
2022-12-27T14:20:12.312Z,296.40
2022-12-27T14:23:14.468Z,26.48
2022-12-27T14:26:12.477Z,252.38
2022-12-27T14:28:59.942Z,157.02
2022-12-27T14:31:37.007Z,25.90
2022-12-27T14:34:44.997Z,22.35
2022-12-27T14:37:31.072Z,22.80
2022-12-27T14:40:34.820Z,22.30
2022-12-27T14:43:23.282Z,21.23
2022-12-27T14:46:41.254Z,23.33
2022-12-27T14:49:35.472Z,24.48
2022-12-27T14:52:36.735Z,22.80
2022-12-27T14:55:39.195Z,23.13
2022-12-27T14:58:16.651Z,24.42
2022-12-27T15:01:10.842Z,23.42
2022-12-27T15:03:46.797Z,24.63
2022-12-27T15:06:51.587Z,23.90
2022-12-27T15:09:45.685Z,24.58
2022-12-27T15:12:46.787Z,24.02
2022-12-27T15:15:34.976Z,24.33
2022-12-27T15:19:03.436Z,24.90
2022-12-27T15:22:06.039Z,25.55
2022-12-27T15:24:56.331Z,24.02
2022-12-27T15:28:01.581Z,23.02
2022-12-27T15:30:51.902Z,23.77
2022-12-27T15:33:40.322Z,23.48
2022-12-27T15:36:38.432Z,22.63
2022-12-27T15:39:28.754Z,25.80
2022-12-27T15:42:14.587Z,25.40
2022-12-27T15:44:53.522Z,25.17
2022-12-27T15:47:29.510Z,24.20
2022-12-27T15:50:05.632Z,24.70
2022-12-27T15:52:57.158Z,25.58
2022-12-27T15:56:03.013Z,23.90
2022-12-27T15:58:33.406Z,25.60
2022-12-27T16:01:31.517Z,24.35
2022-12-27T16:04:22.032Z,24.38
2022-12-27T16:06:57.677Z,27.00
2022-12-27T16:09:33.429Z,26.10
2022-12-27T16:12:06.745Z,26.13
2022-12-27T16:14:43.499Z,25.80
2022-12-27T16:17:34.051Z,26.85
2022-12-27T16:20:28.133Z,26.50
2022-12-27T16:23:02.467Z,27.83
2022-12-27T16:26:09.620Z,28.23
2022-12-27T16:28:40.463Z,27.15
2022-12-27T16:31:14.997Z,27.67
2022-12-27T16:33:45.689Z,29.27
2022-12-27T16:36:16.124Z,28.13
2022-12-27T16:39:07.817Z,30.00
2022-12-27T16:44:36.390Z,26.58
2022-12-27T16:47:42.625Z,28.20
2022-12-27T16:50:40.661Z,27.30
2022-12-27T16:53:23.173Z,27.98
2022-12-27T16:56:28.228Z,28.35
2022-12-27T16:58:59.963Z,28.30
2022-12-27T17:01:39.155Z,27.00
2022-12-27T17:04:09.616Z,28.73
2022-12-27T17:06:39.731Z,28.40
2022-12-27T17:09:12.493Z,27.83
2022-12-27T17:11:44.393Z,29.58
2022-12-27T17:14:24.689Z,29.65
2022-12-27T17:17:13.022Z,29.73
2022-12-27T17:19:50.784Z,30.25
2022-12-27T17:22:21.780Z,32.45
2022-12-27T17:24:57.853Z,29.27
2022-12-27T17:27:46.477Z,29.23
2022-12-27T17:30:19.303Z,32.47
2022-12-27T17:33:10.300Z,30.80
2022-12-27T17:35:46.284Z,32.93
2022-12-27T17:38:22.241Z,32.42
2022-12-27T17:41:09.143Z,33.45
2022-12-27T17:44:35.153Z,35.72
2022-12-27T17:47:41.673Z,44.35
2022-12-27T17:50:26.132Z,32.10
2022-12-27T17:53:32.737Z,30.50
2022-12-27T17:56:43.668Z,31.63
2022-12-27T17:59:27.348Z,31.95
2022-12-27T18:02:09.055Z,29.88
2022-12-27T18:04:44.123Z,31.25
2022-12-27T18:07:17.879Z,30.73
2022-12-27T18:09:54.526Z,31.83
2022-12-27T18:12:30.881Z,33.92
2022-12-27T18:15:08.887Z,31.67
2022-12-27T18:17:40.382Z,32.35
2022-12-27T18:23:04.886Z,30.38
2022-12-27T18:25:46.980Z,31.77
2022-12-27T18:28:33.835Z,32.20
2022-12-27T18:31:25.627Z,30.38
2022-12-27T18:34:10.247Z,28.92
2022-12-27T18:36:50.554Z,30.08
2022-12-27T18:39:28.296Z,29.75
2022-12-27T18:41:59.342Z,29.70
2022-12-27T18:44:34.241Z,29.13
2022-12-27T18:47:06.504Z,30.15
2022-12-27T18:49:40.156Z,30.73
2022-12-27T18:52:24.635Z,28.88
2022-12-27T18:54:55.303Z,31.67
2022-12-27T18:57:37.343Z,29.40
2022-12-27T19:00:26.638Z,29.25
2022-12-27T19:03:16.397Z,29.00
2022-12-27T19:06:09.783Z,28.98
2022-12-27T19:08:53.973Z,30.80
2022-12-27T19:11:34.582Z,28.65
2022-12-27T19:14:07.514Z,32.40
2022-12-27T19:16:38.869Z,34.28
2022-12-27T19:24:34.416Z,32.47
2022-12-27T19:27:18.671Z,32.13
2022-12-27T19:29:54.952Z,30.80
2022-12-27T19:32:34.063Z,31.73
2022-12-27T19:35:07.272Z,31.13
2022-12-27T19:37:38.108Z,29.27
2022-12-27T19:40:09.105Z,29.47
2022-12-27T19:42:39.201Z,31.52
2022-12-27T19:45:09.623Z,30.90
2022-12-27T19:47:42.014Z,29.60
2022-12-27T19:50:15.914Z,30.92
2022-12-27T19:52:46.229Z,29.73
2022-12-27T19:55:24.131Z,30.92
2022-12-27T19:57:55.255Z,30.98
2022-12-27T20:00:28.149Z,31.17
2022-12-27T20:02:58.735Z,31.48
2022-12-27T20:06:11.312Z,31.92
2022-12-27T20:08:30.130Z,30.57
2022-12-27T20:11:00.345Z,30.40
2022-12-27T20:13:31.020Z,32.25
2022-12-27T20:16:02.528Z,31.40
2022-12-27T20:21:02.772Z,31.23
2022-12-27T20:23:33.028Z,32.20
2022-12-27T20:26:05.489Z,32.55
2022-12-27T20:28:36.257Z,33.80
2022-12-27T20:31:15.682Z,32.97
2022-12-27T20:33:46.439Z,33.45
2022-12-27T20:36:16.629Z,34.37
2022-12-27T20:38:47.008Z,34.60
2022-12-27T20:41:20.192Z,33.95
2022-12-27T20:43:51.202Z,34.08
2022-12-27T20:46:21.598Z,32.73
2022-12-27T20:48:51.975Z,33.85
2022-12-27T20:51:24.532Z,34.50
2022-12-27T20:54:03.063Z,32.80
2022-12-27T20:56:33.641Z,31.95
2022-12-27T20:59:04.257Z,31.17
2022-12-27T21:01:34.576Z,32.97
2022-12-27T21:04:05.740Z,33.25
2022-12-27T21:06:36.126Z,31.65
2022-12-27T21:09:07.714Z,30.30
2022-12-27T21:14:08.359Z,30.35
2022-12-27T21:16:38.705Z,30.75
2022-12-27T21:19:09.878Z,29.98
2022-12-27T21:21:41.259Z,31.63
2022-12-27T21:29:14.542Z,31.48
2022-12-27T21:31:45.372Z,29.65
2022-12-27T21:34:15.709Z,29.20
2022-12-27T21:36:45.963Z,29.45
2022-12-27T21:39:16.167Z,28.88
2022-12-27T21:41:46.449Z,28.60
2022-12-27T21:44:16.430Z,29.33
2022-12-27T21:46:48.680Z,29.42
2022-12-27T21:49:20.313Z,28.77
2022-12-27T21:51:50.579Z,28.80
2022-12-27T21:54:20.769Z,28.70
2022-12-27T21:56:51.049Z,27.63
2022-12-27T21:59:22.289Z,28.27
2022-12-27T22:01:52.885Z,28.83
2022-12-27T22:04:24.081Z,27.63
2022-12-27T22:06:54.344Z,27.90
2022-12-27T22:09:24.468Z,30.27
2022-12-27T22:11:59.236Z,29.55
2022-12-27T22:14:33.254Z,30.77
2022-12-27T22:17:07.088Z,30.10
2022-12-27T22:19:37.350Z,30.38
2022-12-27T22:22:09.303Z,31.45
2022-12-27T22:24:39.475Z,30.25
2022-12-27T22:27:09.577Z,30.92
2022-12-27T22:29:39.610Z,29.88
2022-12-27T22:32:09.798Z,31.60
2022-12-27T22:34:39.732Z,30.83
2022-12-27T22:37:09.827Z,31.60
2022-12-27T22:39:39.837Z,29.98
2022-12-27T22:42:09.817Z,29.83
2022-12-27T22:44:39.880Z,31.05
2022-12-27T22:47:27.689Z,29.15
2022-12-27T22:49:58.214Z,31.27
2022-12-27T22:52:28.243Z,29.02
2022-12-27T22:55:05.114Z,30.10
2022-12-27T22:58:13.188Z,407.38
2022-12-27T23:02:32.835Z,33.80
2022-12-27T23:05:03.477Z,32.35
2022-12-27T23:08:06.159Z,31.60
2022-12-27T23:10:24.266Z,31.70
2022-12-27T23:12:54.494Z,30.48
2022-12-27T23:15:24.727Z,32.95
2022-12-27T23:17:55.423Z,43.60
2022-12-27T23:20:25.862Z,32.35
2022-12-27T23:22:57.861Z,30.05
2022-12-27T23:25:29.742Z,27.98
2022-12-27T23:27:59.966Z,30.15
2022-12-27T23:30:30.222Z,29.15
2022-12-27T23:33:00.258Z,28.55
2022-12-27T23:35:30.292Z,26.13
2022-12-27T23:38:00.301Z,29.63
2022-12-27T23:40:30.779Z,29.00
2022-12-27T23:43:18.748Z,30.27
2022-12-27T23:45:52.270Z,31.67
2022-12-27T23:48:22.571Z,32.95
2022-12-27T23:50:52.934Z,34.90
2022-12-27T23:53:23.228Z,33.70
2022-12-27T23:56:09.938Z,38.00
2022-12-27T23:58:40.206Z,40.60
